Time;durP1;ratioP1;P1;durP2;ratioP2;P2;SDS_P1;SDS_P2;PMS_P1;PMS_P2;Temp;Humidity;BMP_temperature;BMP_pressure;BME280_temperature;BME280_humidity;BME280_pressure;Samples;Min_cycle;Max_cycle;Signal;HPM_P1;HPM_P2
2023/03/22 00:00:28;;;;;;;24.23;19.27;;;;;;;14.22;58.42;100965.13;5040489;28;20854;-76
2023/03/22 00:02:55;;;;;;;24.35;18.63;;;;;;;14.33;58.15;100969.97;5039248;28;20410;-76
2023/03/22 00:05:21;;;;;;;26.42;18.98;;;;;;;14.32;58.01;100967.50;5039511;28;20367;-76
2023/03/22 00:07:52;;;;;;;24.13;18.75;;;;;;;14.29;58.02;100968.69;5041898;28;20405;-76
2023/03/22 00:10:18;;;;;;;21.65;17.63;;;;;;;14.27;58.13;100964.56;5041558;28;20460;-75
2023/03/22 00:12:44;;;;;;;21.52;17.35;;;;;;;14.31;58.19;100965.84;5040602;28;20401;-76
2023/03/22 00:15:10;;;;;;;23.15;18.10;;;;;;;14.30;58.13;100970.34;5041742;28;20503;-76
2023/03/22 00:17:35;;;;;;;21.77;16.88;;;;;;;14.30;58.16;100978.34;5041642;28;20439;-76
2023/03/22 00:20:07;;;;;;;21.60;16.50;;;;;;;14.31;58.28;100977.34;5039168;28;20712;-76
2023/03/22 00:22:33;;;;;;;18.83;16.15;;;;;;;14.29;58.49;100975.88;5042802;28;20374;-76
2023/03/22 00:24:58;;;;;;;20.30;17.02;;;;;;;14.27;58.64;100978.72;5040116;28;20460;-76
2023/03/22 00:27:24;;;;;;;20.50;16.10;;;;;;;14.31;58.81;100984.50;5042175;28;20412;-76
2023/03/22 00:29:52;;;;;;;20.23;16.08;;;;;;;14.30;58.53;100978.34;5042162;28;21071;-76
2023/03/22 00:32:18;;;;;;;20.17;16.48;;;;;;;14.23;58.67;100977.44;5040547;28;20878;-76
2023/03/22 00:34:44;;;;;;;20.30;15.95;;;;;;;14.20;58.78;100969.81;5039943;28;20867;-76
2023/03/22 00:37:09;;;;;;;21.63;16.85;;;;;;;14.26;58.89;100968.22;5040193;28;20835;-76
2023/03/22 00:39:35;;;;;;;21.20;16.50;;;;;;;14.30;58.62;100970.34;5042629;28;20378;-75
2023/03/22 00:42:02;;;;;;;20.88;16.38;;;;;;;14.39;58.55;100970.25;5039798;28;20382;-75
2023/03/22 00:44:27;;;;;;;20.52;15.98;;;;;;;14.44;58.24;100970.47;5042609;28;20389;-76
2023/03/22 00:46:53;;;;;;;24.10;16.50;;;;;;;14.43;58.29;100963.50;5039320;28;20388;-75
2023/03/22 00:49:18;;;;;;;22.02;17.15;;;;;;;14.42;58.50;100968.03;5041316;28;20381;-75
2023/03/22 00:51:44;;;;;;;21.47;16.50;;;;;;;14.52;58.05;100967.72;5039689;28;20427;-75
2023/03/22 00:54:09;;;;;;;20.55;16.13;;;;;;;14.45;58.14;100974.81;5042689;28;20478;-76
2023/03/22 00:56:36;;;;;;;22.07;16.70;;;;;;;14.47;58.43;100978.94;5042446;28;20469;-76
2023/03/22 00:59:02;;;;;;;22.95;16.88;;;;;;;14.49;58.27;100974.22;5039414;28;20390;-76
2023/03/22 01:01:28;;;;;;;23.88;17.73;;;;;;;14.51;58.32;100974.03;5039367;28;20378;-76
2023/03/22 01:03:53;;;;;;;21.77;16.95;;;;;;;14.51;58.40;100974.03;5042246;28;20392;-76
2023/03/22 01:06:19;;;;;;;24.60;16.97;;;;;;;14.54;58.09;100979.00;5042954;28;20474;-76
2023/03/22 01:08:44;;;;;;;22.30;16.97;;;;;;;14.48;57.98;100974.44;5041030;28;20466;-76
2023/03/22 01:11:10;;;;;;;22.30;17.33;;;;;;;14.53;58.10;100986.19;5043977;28;20763;-76
2023/03/22 01:13:36;;;;;;;22.33;17.20;;;;;;;14.53;58.08;100988.84;5040470;28;20400;-76
2023/03/22 01:16:03;;;;;;;22.03;16.63;;;;;;;14.51;58.34;100985.56;5040094;28;20417;-76
2023/03/22 01:18:28;;;;;;;20.15;16.73;;;;;;;14.52;58.10;100973.84;5040164;28;20380;-76
2023/03/22 01:20:54;;;;;;;20.07;16.50;;;;;;;14.51;58.16;100972.22;5044087;28;20375;-77
2023/03/22 01:23:19;;;;;;;22.70;16.97;;;;;;;14.49;58.26;100978.75;5041449;28;20392;-76
2023/03/22 01:25:45;;;;;;;23.37;17.30;;;;;;;14.47;58.43;100981.59;5040589;28;20740;-76
2023/03/22 01:28:11;;;;;;;22.67;17.30;;;;;;;14.42;58.33;100975.19;5038885;28;20885;-76
2023/03/22 01:30:39;;;;;;;21.80;17.57;;;;;;;14.50;58.33;100980.41;5041121;28;20446;-76
2023/03/22 01:33:06;;;;;;;21.67;17.20;;;;;;;14.53;58.11;100975.53;5040165;28;20398;-76
2023/03/22 01:35:32;;;;;;;21.42;17.50;;;;;;;14.56;57.85;100971.63;5038509;28;20382;-76
2023/03/22 01:37:58;;;;;;;23.80;18.02;;;;;;;14.59;57.75;100978.47;5039694;28;20389;-76
2023/03/22 01:40:25;;;;;;;23.88;18.23;;;;;;;14.58;57.83;100964.28;5040839;28;20377;-76
2023/03/22 01:42:52;;;;;;;24.90;18.70;;;;;;;14.62;57.67;100970.94;5040057;28;20720;-76
2023/03/22 01:45:41;;;;;;;23.17;18.40;;;;;;;14.64;57.78;100973.38;5038287;28;20568;-76
2023/03/22 01:48:30;;;;;;;22.08;18.40;;;;;;;14.72;57.39;100968.75;5038617;28;20734;-76
2023/03/22 01:51:21;;;;;;;25.38;18.92;;;;;;;14.68;57.60;100958.66;5035198;28;20468;-76
2023/03/22 01:53:50;;;;;;;22.20;18.83;;;;;;;14.62;57.73;100964.75;5037663;28;20489;-76
2023/03/22 01:56:19;;;;;;;27.27;20.27;;;;;;;14.61;58.05;100965.78;5042688;28;20441;-76
2023/03/22 01:58:45;;;;;;;25.33;19.40;;;;;;;14.56;57.96;100960.16;5069550;28;20376;-76
2023/03/22 02:01:11;;;;;;;24.65;20.10;;;;;;;14.57;58.41;100961.78;5068230;28;20381;-76
2023/03/22 02:03:42;;;;;;;26.37;20.10;;;;;;;14.52;58.53;100962.38;5061070;28;20378;-76
2023/03/22 02:06:08;;;;;;;25.52;19.98;;;;;;;14.47;58.70;100960.25;5050821;28;20373;-76
2023/03/22 02:08:33;;;;;;;26.40;19.60;;;;;;;14.50;58.69;100959.88;5050634;28;20446;-76
2023/03/22 02:11:02;;;;;;;25.13;19.13;;;;;;;14.52;58.43;100967.72;5050950;28;20470;-76
2023/03/22 02:13:46;;;;;;;23.23;19.20;;;;;;;14.52;58.48;100960.53;5050165;28;21167;-76
2023/03/22 02:16:48;;;;;;;26.52;19.88;;;;;;;14.49;58.48;100963.56;5052136;28;20372;-76
2023/03/22 02:20:03;;;;;;;27.40;19.67;;;;;;;14.48;58.66;100969.94;5072047;28;20383;-76
2023/03/22 02:22:37;;;;;;;26.13;20.35;;;;;;;14.48;58.69;100966.44;4994572;28;20388;-76
2023/03/22 02:25:18;;;;;;;25.90;19.52;;;;;;;14.44;59.08;100970.47;5052907;28;20395;-75
2023/03/22 02:28:08;;;;;;;26.33;20.30;;;;;;;14.37;59.18;100967.75;5053794;28;20749;-76
2023/03/22 02:30:42;;;;;;;25.30;20.43;;;;;;;14.35;59.13;100972.47;5053831;28;20415;-76
2023/03/22 02:33:45;;;;;;;26.35;20.08;;;;;;;14.36;59.07;100963.44;5053799;28;20401;-76
2023/03/22 02:36:49;;;;;;;25.83;20.40;;;;;;;14.41;58.94;100962.88;5053747;28;20455;-76
2023/03/22 02:39:26;;;;;;;25.70;19.80;;;;;;;14.52;58.47;100968.53;5056312;28;20393;-77
2023/03/22 02:41:55;;;;;;;26.00;20.08;;;;;;;14.63;58.32;100974.41;5052275;28;20381;-77
2023/03/22 02:44:41;;;;;;;26.13;20.17;;;;;;;14.68;58.04;100970.16;5054043;28;20361;-77
2023/03/22 02:47:20;;;;;;;26.65;20.42;;;;;;;14.60;58.39;100982.78;5053420;28;20403;-76
2023/03/22 02:49:57;;;;;;;25.27;20.80;;;;;;;14.52;58.83;100976.53;5053334;28;20376;-76
2023/03/22 02:52:31;;;;;;;27.10;21.13;;;;;;;14.51;58.68;100985.56;5053045;28;20929;-76
2023/03/22 02:55:32;;;;;;;27.55;21.65;;;;;;;14.40;58.94;100988.69;5053443;28;20377;-76
2023/03/22 02:58:10;;;;;;;28.27;21.85;;;;;;;14.21;59.60;100998.13;5062588;28;20392;-76
2023/03/22 03:00:38;;;;;;;32.27;21.60;;;;;;;14.22;59.54;100997.13;5052499;28;20404;-75
2023/03/22 03:03:10;;;;;;;28.95;22.58;;;;;;;14.23;59.82;101003.28;5050587;28;20372;-75
2023/03/22 03:05:42;;;;;;;27.35;22.23;;;;;;;14.16;59.97;101003.19;5052236;28;20409;-76
2023/03/22 03:08:10;;;;;;;30.13;22.27;;;;;;;14.06;60.33;100995.50;5052512;28;20460;-77
2023/03/22 03:10:38;;;;;;;28.13;21.63;;;;;;;13.98;60.47;100992.94;5052979;28;20684;-76
2023/03/22 03:13:03;;;;;;;27.77;21.43;;;;;;;13.96;60.37;100995.78;5051594;28;20906;-77
2023/03/22 03:15:29;;;;;;;25.97;22.07;;;;;;;13.92;60.66;101001.69;5053031;28;20858;-76
2023/03/22 03:18:15;;;;;;;28.27;21.70;;;;;;;13.86;61.05;101003.22;5052854;28;20380;-77
2023/03/22 03:21:01;;;;;;;28.08;21.88;;;;;;;13.78;61.53;101008.66;5053119;28;20749;-77
2023/03/22 03:23:35;;;;;;;28.73;22.52;;;;;;;13.76;61.52;101010.69;5052741;28;20373;-77
2023/03/22 03:26:36;;;;;;;31.77;22.48;;;;;;;13.76;61.80;101002.69;5051476;28;20446;-76
2023/03/22 03:29:10;;;;;;;28.70;21.48;;;;;;;13.89;61.21;101008.19;5062226;28;20446;-76
2023/03/22 03:32:24;;;;;;;27.23;22.05;;;;;;;13.87;61.45;101001.41;5052650;28;20434;-76
2023/03/22 03:35:21;;;;;;;28.90;22.10;;;;;;;13.96;61.05;101008.28;5051053;28;20858;-76
2023/03/22 03:37:53;;;;;;;27.83;22.05;;;;;;;14.00;60.73;101006.91;5052496;28;20385;-76
2023/03/22 03:40:24;;;;;;;29.40;22.10;;;;;;;13.95;61.02;101007.47;5052453;28;20373;-76
2023/03/22 03:42:53;;;;;;;26.80;22.00;;;;;;;13.94;61.37;101010.31;5052214;28;20442;-76
2023/03/22 03:45:20;;;;;;;26.85;22.63;;;;;;;13.95;61.07;101009.28;5052297;28;20387;-76
2023/03/22 03:47:54;;;;;;;29.65;22.80;;;;;;;13.94;61.11;101007.66;5052168;28;20377;-76
2023/03/22 03:50:20;;;;;;;27.55;22.58;;;;;;;13.94;61.26;101003.13;5051153;28;20765;-76
2023/03/22 03:52:45;;;;;;;28.77;22.55;;;;;;;14.00;61.13;101004.22;5051930;28;20906;-76
2023/03/22 03:55:11;;;;;;;27.57;22.10;;;;;;;14.08;60.84;101009.47;5051976;28;20876;-76
2023/03/22 03:57:36;;;;;;;28.40;22.60;;;;;;;14.22;60.46;101006.97;5052204;28;20392;-75
2023/03/22 04:00:03;;;;;;;30.92;25.27;;;;;;;14.29;60.20;101003.34;5051603;28;20376;-76
2023/03/22 04:02:29;;;;;;;30.20;23.58;;;;;;;14.37;60.07;101012.25;5050820;28;20384;-75
2023/03/22 04:04:54;;;;;;;29.80;22.60;;;;;;;14.33;60.04;101007.31;5050985;28;20384;-76
2023/03/22 04:07:20;;;;;;;29.88;22.08;;;;;;;14.35;59.64;101015.13;5052190;28;20378;-76
2023/03/22 04:09:45;;;;;;;29.57;22.20;;;;;;;14.36;59.70;101026.63;5051830;28;20412;-76
2023/03/22 04:12:11;;;;;;;29.67;23.05;;;;;;;14.24;59.81;101026.25;5051919;28;20415;-77
2023/03/22 04:14:36;;;;;;;31.70;24.17;;;;;;;14.10;60.48;101033.28;5052091;28;20404;-76
2023/03/22 04:17:02;;;;;;;30.63;24.17;;;;;;;13.97;60.98;101031.25;5052258;28;20419;-76
2023/03/22 04:19:27;;;;;;;31.35;25.35;;;;;;;13.94;61.26;101034.28;5052030;28;20381;-75
2023/03/22 04:21:53;;;;;;;32.63;24.73;;;;;;;14.00;61.18;101030.06;5050445;28;20384;-76
2023/03/22 04:24:21;;;;;;;31.55;25.15;;;;;;;13.95;61.34;101042.13;5040780;28;20378;-77
2023/03/22 04:26:47;;;;;;;33.47;24.20;;;;;;;13.73;62.01;101037.69;5032001;28;20986;-76
2023/03/22 04:29:13;;;;;;;26.60;21.90;;;;;;;13.36;63.02;101036.69;5030339;28;20457;-76
2023/03/22 04:31:39;;;;;;;28.73;22.43;;;;;;;13.38;62.75;101040.03;5034508;28;20523;-76
2023/03/22 04:34:05;;;;;;;27.40;22.45;;;;;;;13.54;62.45;101042.53;5049172;28;20459;-76
2023/03/22 04:36:35;;;;;;;30.08;22.17;;;;;;;13.62;61.88;101033.63;5046201;28;20506;-76
2023/03/22 04:39:06;;;;;;;29.10;21.83;;;;;;;13.64;61.68;101036.13;5035032;28;20415;-76
2023/03/22 04:41:32;;;;;;;28.67;21.70;;;;;;;13.58;61.43;101045.66;5043792;28;20449;-77
2023/03/22 04:44:02;;;;;;;28.90;22.35;;;;;;;13.62;61.14;101046.13;5048336;28;20449;-77
2023/03/22 04:46:29;;;;;;;37.38;27.70;;;;;;;13.59;61.38;101052.63;5033496;28;21145;-76
2023/03/22 04:48:55;;;;;;;31.47;24.30;;;;;;;13.52;61.47;101057.03;5045995;28;20441;-79
2023/03/22 04:51:20;;;;;;;28.10;22.73;;;;;;;13.34;61.76;101057.34;5035657;28;20455;-76
2023/03/22 04:53:46;;;;;;;30.73;23.33;;;;;;;13.16;62.16;101058.47;5040159;28;20449;-75
2023/03/22 04:56:12;;;;;;;28.27;21.67;;;;;;;13.15;62.16;101062.13;5036843;28;20393;-76
2023/03/22 04:58:39;;;;;;;27.30;21.00;;;;;;;12.99;62.55;101054.28;5038554;28;20523;-76
2023/03/22 05:01:06;;;;;;;27.13;21.00;;;;;;;12.88;62.55;101065.34;5039534;28;20440;-76
2023/03/22 05:03:32;;;;;;;30.20;21.75;;;;;;;12.84;62.86;101066.69;5053067;28;20378;-76
2023/03/22 05:06:00;;;;;;;26.63;20.65;;;;;;;12.61;63.17;101070.16;5061688;28;20381;-76
2023/03/22 05:08:27;;;;;;;26.20;19.65;;;;;;;12.61;62.93;101078.13;5057659;28;20385;-75
2023/03/22 05:10:54;;;;;;;26.08;18.45;;;;;;;12.55;62.69;101081.47;5046481;28;20490;-76
2023/03/22 05:13:21;;;;;;;26.63;19.90;;;;;;;12.50;62.95;101089.16;5030664;28;20479;-75
2023/03/22 05:15:48;;;;;;;28.85;19.85;;;;;;;12.50;62.61;101084.66;5033832;28;20386;-77
2023/03/22 05:18:14;;;;;;;27.05;19.65;;;;;;;12.47;62.54;101079.69;5042452;28;20496;-76
2023/03/22 05:20:42;;;;;;;27.25;19.95;;;;;;;12.54;62.37;101087.81;5035191;28;20713;-77
2023/03/22 05:23:09;;;;;;;25.73;19.97;;;;;;;12.55;62.39;101079.66;5041925;28;20548;-78
2023/03/22 05:25:35;;;;;;;26.55;20.63;;;;;;;12.56;62.18;101088.47;5034784;28;20427;-76
2023/03/22 05:28:02;;;;;;;27.85;21.85;;;;;;;12.50;62.63;101095.31;5047328;28;20434;-76
2023/03/22 05:30:28;;;;;;;26.97;19.60;;;;;;;12.30;63.08;101097.53;5036772;28;20388;-76
2023/03/22 05:33:03;;;;;;;27.92;19.98;;;;;;;12.35;62.92;101097.88;5039051;28;20501;-78
2023/03/22 05:35:30;;;;;;;24.70;19.00;;;;;;;12.24;63.21;101103.53;5037449;28;20384;-77
2023/03/22 05:37:56;;;;;;;28.25;20.30;;;;;;;12.24;63.43;101100.88;5051963;28;20388;-76
2023/03/22 05:40:23;;;;;;;28.08;20.42;;;;;;;12.29;63.55;101098.53;5045238;28;20457;-76
2023/03/22 05:42:48;;;;;;;26.20;20.50;;;;;;;12.40;63.34;101106.13;5046297;28;20394;-77
2023/03/22 05:45:14;;;;;;;28.20;21.60;;;;;;;12.51;62.97;101107.56;5038461;28;20440;-76
2023/03/22 05:47:39;;;;;;;28.97;21.70;;;;;;;12.60;62.75;101114.53;5042854;28;20406;-76
2023/03/22 05:50:07;;;;;;;33.17;21.70;;;;;;;12.56;62.76;101110.56;5029570;28;20843;-76
2023/03/22 05:52:33;;;;;;;31.33;20.40;;;;;;;12.47;62.98;101108.94;5018746;28;20766;-77
2023/03/22 05:54:58;;;;;;;28.47;22.10;;;;;;;12.56;63.01;101107.06;5046126;28;20423;-76
2023/03/22 05:57:23;;;;;;;30.27;21.70;;;;;;;12.56;63.34;101121.19;5049347;28;20380;-76
2023/03/22 05:59:52;;;;;;;31.30;22.47;;;;;;;12.64;63.01;101120.34;5035972;28;20433;-76
2023/03/22 06:02:21;;;;;;;32.55;21.85;;;;;;;12.78;63.14;101124.06;5046153;28;20897;-77
2023/03/22 06:04:46;;;;;;;30.53;20.83;;;;;;;12.87;62.76;101112.38;5054588;28;20450;-76
2023/03/22 06:07:13;;;;;;;29.00;21.23;;;;;;;13.06;62.55;101121.75;5054286;28;20388;-76
2023/03/22 06:09:38;;;;;;;31.85;22.67;;;;;;;13.07;62.44;101122.59;5052716;28;20936;-75
2023/03/22 06:12:05;;;;;;;28.10;21.98;;;;;;;13.29;61.96;101127.09;5049218;28;20424;-76
2023/03/22 06:14:30;;;;;;;35.53;22.85;;;;;;;13.47;61.77;101129.50;5048127;28;20373;-76
2023/03/22 06:16:56;;;;;;;35.40;22.67;;;;;;;13.56;61.65;101141.72;5053469;28;20446;-77
2023/03/22 06:19:21;;;;;;;35.27;23.67;;;;;;;13.67;61.36;101145.81;5052869;28;20718;-77
2023/03/22 06:21:47;;;;;;;31.02;24.30;;;;;;;13.78;61.11;101141.88;5048202;28;20401;-76
2023/03/22 06:24:12;;;;;;;32.27;23.57;;;;;;;13.81;61.37;101138.00;5038730;28;20406;-76
2023/03/22 06:26:38;;;;;;;36.13;24.50;;;;;;;13.93;61.58;101149.91;5053993;28;20408;-79
2023/03/22 06:29:03;;;;;;;38.07;25.30;;;;;;;13.95;61.18;101145.22;5053092;28;20867;-77
2023/03/22 06:31:29;;;;;;;34.47;24.48;;;;;;;13.89;61.68;101140.63;5050091;28;20382;-76
2023/03/22 06:33:55;;;;;;;33.42;24.40;;;;;;;13.92;61.57;101148.25;5041803;28;20402;-76
2023/03/22 06:36:21;;;;;;;38.72;25.05;;;;;;;13.93;61.77;101155.22;5041145;28;20853;-77
2023/03/22 06:38:46;;;;;;;31.48;24.40;;;;;;;14.05;61.45;101159.09;5053502;28;20419;-76
2023/03/22 06:41:13;;;;;;;34.53;24.57;;;;;;;14.07;61.09;101157.09;5053832;28;20414;-78
2023/03/22 06:43:39;;;;;;;34.72;23.73;;;;;;;14.14;61.22;101157.19;5053788;28;20491;-77
2023/03/22 06:46:04;;;;;;;33.28;23.98;;;;;;;14.05;61.38;101164.44;5053467;28;20913;-76
2023/03/22 06:48:30;;;;;;;32.80;24.07;;;;;;;13.99;61.44;101169.66;5049261;28;20456;-76
2023/03/22 06:50:58;;;;;;;34.50;24.80;;;;;;;14.16;61.63;101165.84;5052261;28;20412;-77
2023/03/22 06:53:24;;;;;;;34.65;25.27;;;;;;;14.31;60.94;101160.50;5053358;28;20412;-79
2023/03/22 06:55:50;;;;;;;36.58;24.63;;;;;;;14.34;60.83;101158.28;5053383;28;20381;-78
2023/03/22 06:58:15;;;;;;;32.72;23.92;;;;;;;14.43;60.87;101160.88;5050366;28;20767;-77
2023/03/22 07:00:41;;;;;;;33.10;24.07;;;;;;;14.42;60.59;101159.22;5053725;28;20385;-77
2023/03/22 07:03:07;;;;;;;33.73;24.53;;;;;;;14.38;61.03;101164.09;5052613;28;20698;-79
2023/03/22 07:05:32;;;;;;;34.85;24.13;;;;;;;14.48;60.45;101166.50;5054187;28;20399;-77
2023/03/22 07:07:57;;;;;;;32.70;24.13;;;;;;;14.52;60.35;101159.78;5053013;28;20381;-76
2023/03/22 07:10:23;;;;;;;32.40;23.80;;;;;;;14.46;60.46;101176.53;5052495;28;20384;-77
2023/03/22 07:12:48;;;;;;;32.60;24.47;;;;;;;14.48;60.75;101171.84;5052874;28;20404;-77
2023/03/22 07:15:16;;;;;;;31.33;24.37;;;;;;;14.78;59.99;101177.97;5052845;28;20550;-78
2023/03/22 07:17:41;;;;;;;34.42;24.70;;;;;;;14.73;59.98;101180.41;5056340;28;20416;-77
2023/03/22 07:20:07;;;;;;;32.95;24.17;;;;;;;14.72;59.86;101179.56;5052468;28;20479;-77
2023/03/22 07:22:33;;;;;;;33.40;23.67;;;;;;;14.71;59.76;101175.25;5053825;28;20442;-76
2023/03/22 07:24:59;;;;;;;34.13;23.90;;;;;;;14.78;59.70;101180.66;5054946;28;20380;-77
2023/03/22 07:27:24;;;;;;;32.70;24.43;;;;;;;14.82;59.63;101179.28;5054337;28;20388;-77
2023/03/22 07:29:50;;;;;;;31.77;23.60;;;;;;;14.87;59.51;101170.69;5055056;28;20369;-77
2023/03/22 07:32:16;;;;;;;40.73;27.27;;;;;;;15.04;59.22;101179.34;5050165;28;20955;-77
2023/03/22 07:34:42;;;;;;;40.43;26.77;;;;;;;15.04;59.18;101177.47;5054451;28;20426;-77
2023/03/22 07:37:07;;;;;;;33.67;24.53;;;;;;;15.31;58.93;101184.97;5053421;28;20372;-77
2023/03/22 07:39:33;;;;;;;33.57;25.13;;;;;;;15.50;58.43;101189.66;5049183;28;20393;-77
2023/03/22 07:41:59;;;;;;;33.60;23.87;;;;;;;15.17;58.91;101194.69;5033561;28;20420;-77
2023/03/22 07:44:25;;;;;;;32.83;23.20;;;;;;;15.04;59.15;101196.16;5049723;28;21661;-78
2023/03/22 07:46:51;;;;;;;35.42;23.77;;;;;;;15.03;59.23;101196.34;5049984;28;20416;-77
2023/03/22 07:49:17;;;;;;;33.88;24.40;;;;;;;15.19;58.97;101184.63;5053084;28;20380;-76
2023/03/22 07:51:43;;;;;;;37.42;24.52;;;;;;;15.50;58.33;101184.31;5052829;28;20828;-77
2023/03/22 07:54:08;;;;;;;31.80;23.42;;;;;;;15.64;57.75;101183.44;5053439;28;20423;-76
2023/03/22 07:56:34;;;;;;;33.55;23.45;;;;;;;15.39;58.39;101192.84;5049659;28;20379;-76
2023/03/22 07:59:00;;;;;;;32.60;23.98;;;;;;;15.51;58.21;101187.84;5052585;28;20464;-76
2023/03/22 08:01:25;;;;;;;21.03;14.30;;;;;;;15.92;58.18;101190.69;5051747;28;20381;-75
2023/03/22 08:03:51;;;;;;;32.70;22.58;;;;;;;15.97;57.26;101200.78;5052633;28;20412;-76
2023/03/22 08:06:18;;;;;;;29.03;22.23;;;;;;;15.96;57.14;101199.97;5052659;28;20802;-76
2023/03/22 08:08:44;;;;;;;29.35;21.65;;;;;;;16.05;57.15;101203.34;5053950;28;20758;-76
2023/03/22 08:11:11;;;;;;;29.43;21.20;;;;;;;15.94;56.67;101201.19;5066737;28;20381;-76
2023/03/22 08:13:37;;;;;;;29.02;22.15;;;;;;;15.81;56.92;101202.75;5050213;28;20807;-77
2023/03/22 08:16:03;;;;;;;28.65;21.65;;;;;;;15.71;57.06;101204.88;5050373;28;20865;-78
2023/03/22 08:18:28;;;;;;;27.55;20.88;;;;;;;15.96;57.04;101210.66;5054354;28;20377;-78
2023/03/22 08:20:55;;;;;;;29.40;22.17;;;;;;;16.34;56.29;101204.16;5053827;28;20458;-77
2023/03/22 08:23:22;;;;;;;28.95;21.83;;;;;;;16.52;55.53;101211.69;5050885;28;20389;-77
2023/03/22 08:25:48;;;;;;;29.60;22.20;;;;;;;16.50;55.62;101209.19;5051307;28;20392;-77
2023/03/22 08:28:14;;;;;;;32.38;21.67;;;;;;;16.31;55.63;101204.53;5052305;28;20387;-76
2023/03/22 08:30:41;;;;;;;27.87;21.40;;;;;;;16.34;55.42;101210.31;5049416;28;20435;-75
2023/03/22 08:33:06;;;;;;;27.33;20.80;;;;;;;16.21;55.63;101212.94;5049650;28;20458;-76
2023/03/22 08:35:32;;;;;;;28.57;20.17;;;;;;;16.29;55.32;101206.59;5052644;28;20475;-77
2023/03/22 08:37:58;;;;;;;28.65;20.75;;;;;;;16.15;55.32;101208.34;5051862;28;20458;-76
2023/03/22 08:40:23;;;;;;;28.13;20.63;;;;;;;16.18;55.27;101214.13;5051767;28;20385;-77
2023/03/22 08:42:49;;;;;;;28.50;20.77;;;;;;;16.21;55.24;101207.56;5051554;28;20718;-77
2023/03/22 08:45:15;;;;;;;28.88;20.08;;;;;;;16.46;54.88;101207.09;5051969;28;20384;-76
2023/03/22 08:47:41;;;;;;;26.65;21.05;;;;;;;16.47;54.68;101204.22;5051789;28;20766;-76
2023/03/22 08:50:07;;;;;;;30.05;20.58;;;;;;;16.62;54.54;101204.13;5051516;28;20380;-76
2023/03/22 08:52:33;;;;;;;28.25;20.92;;;;;;;16.58;54.27;101208.19;5051036;28;20420;-75
2023/03/22 08:54:59;;;;;;;27.80;20.13;;;;;;;16.73;54.12;101208.91;5052431;28;20873;-76
2023/03/22 08:57:26;;;;;;;25.08;19.02;;;;;;;16.73;54.00;101211.59;5051332;28;20415;-76
2023/03/22 08:59:56;;;;;;;25.58;19.15;;;;;;;16.59;54.19;101208.00;5051627;28;20445;-77
2023/03/22 09:02:22;;;;;;;24.52;19.17;;;;;;;16.48;54.00;101205.91;5054112;28;20396;-78
2023/03/22 09:04:48;;;;;;;27.33;19.83;;;;;;;16.53;54.02;101205.28;5053893;28;20749;-76
2023/03/22 09:07:13;;;;;;;24.67;19.00;;;;;;;16.41;53.94;101216.56;5050720;28;20793;-76
2023/03/22 09:09:39;;;;;;;25.50;18.88;;;;;;;16.44;53.97;101213.50;5051750;28;20407;-76
2023/03/22 09:12:05;;;;;;;25.43;19.83;;;;;;;16.55;53.91;101217.47;5051142;28;20406;-76
2023/03/22 09:14:30;;;;;;;31.10;20.90;;;;;;;16.43;54.22;101219.84;5051449;28;20407;-76
2023/03/22 09:16:56;;;;;;;29.00;20.20;;;;;;;16.44;54.13;101210.00;5051205;28;20416;-75
2023/03/22 09:19:21;;;;;;;27.87;20.83;;;;;;;16.32;54.51;101225.75;5051203;28;20381;-76
2023/03/22 09:21:47;;;;;;;27.07;20.10;;;;;;;16.15;54.70;101217.22;5051959;28;20381;-79
2023/03/22 09:24:12;;;;;;;29.60;20.90;;;;;;;16.12;54.92;101214.91;5054179;28;20405;-77
2023/03/22 09:26:38;;;;;;;27.50;21.07;;;;;;;16.27;54.89;101211.31;5055253;28;20381;-76
2023/03/22 09:29:03;;;;;;;26.80;20.90;;;;;;;16.52;54.50;101209.00;5056988;28;20812;-77
2023/03/22 09:31:29;;;;;;;28.17;20.30;;;;;;;16.52;54.29;101203.66;5057335;28;20469;-76
2023/03/22 09:33:54;;;;;;;28.25;20.70;;;;;;;16.63;54.18;101200.41;5057428;28;20400;-76
2023/03/22 09:36:20;;;;;;;28.30;20.17;;;;;;;16.82;53.97;101205.03;5054894;28;20384;-77
2023/03/22 09:38:48;;;;;;;27.40;20.15;;;;;;;16.79;53.77;101208.09;5055000;28;20385;-76
2023/03/22 09:41:35;;;;;;;28.75;19.80;;;;;;;16.78;53.90;101206.47;5054818;28;20472;-76
2023/03/22 09:44:05;;;;;;;25.50;20.63;;;;;;;16.79;53.93;101210.78;5055590;28;20381;-76
2023/03/22 09:46:36;;;;;;;24.90;18.73;;;;;;;16.77;54.08;101206.66;5055173;28;20738;-77
2023/03/22 09:49:06;;;;;;;27.70;19.53;;;;;;;16.76;54.13;101213.03;5055302;28;20388;-76
2023/03/22 09:51:40;;;;;;;23.83;17.95;;;;;;;16.75;54.11;101206.03;5055911;28;20416;-77
2023/03/22 09:54:18;;;;;;;28.70;18.77;;;;;;;16.83;53.98;101200.53;5056411;28;20881;-76
2023/03/22 09:56:56;;;;;;;25.48;19.10;;;;;;;16.92;53.95;101195.84;5054502;28;20439;-78
2023/03/22 09:59:55;;;;;;;29.95;20.13;;;;;;;16.99;53.56;101194.81;5054806;28;20386;-76
2023/03/22 10:02:36;;;;;;;24.23;19.85;;;;;;;17.17;53.24;101193.44;5051652;28;20399;-77
2023/03/22 10:05:23;;;;;;;25.30;18.20;;;;;;;17.35;53.06;101200.91;5053419;28;20400;-77
2023/03/22 10:08:15;;;;;;;25.83;18.88;;;;;;;17.42;52.97;101199.06;5054989;28;20368;-76
2023/03/22 10:10:41;;;;;;;27.20;20.05;;;;;;;17.52;52.90;101202.19;5056055;28;20389;-77
2023/03/22 10:13:15;;;;;;;25.42;19.38;;;;;;;17.60;52.49;101203.03;5056123;28;20407;-77
2023/03/22 10:15:44;;;;;;;24.08;19.15;;;;;;;17.57;52.33;101193.53;5054748;28;20534;-77
2023/03/22 10:18:36;;;;;;;26.77;18.80;;;;;;;17.63;52.05;101200.75;5054539;28;20837;-78
2023/03/22 10:21:03;;;;;;;24.80;18.92;;;;;;;17.67;51.70;101195.81;5046270;28;20401;-75
2023/03/22 10:23:42;;;;;;;22.60;18.45;;;;;;;17.56;51.90;101205.28;5054176;28;20793;-75
2023/03/22 10:26:17;;;;;;;23.70;19.42;;;;;;;17.61;51.76;101197.47;5053829;28;20389;-77
2023/03/22 10:28:44;;;;;;;24.20;19.27;;;;;;;17.58;51.59;101203.22;5053886;28;20419;-77
2023/03/22 10:31:16;;;;;;;25.00;18.13;;;;;;;17.58;51.41;101196.00;5054413;28;20844;-77
2023/03/22 10:33:54;;;;;;;24.38;18.77;;;;;;;17.67;51.26;101209.22;5053108;28;20412;-76
2023/03/22 10:36:23;;;;;;;23.23;17.47;;;;;;;17.65;50.74;101197.88;5053143;28;20384;-76
2023/03/22 10:38:55;;;;;;;22.03;17.53;;;;;;;17.66;50.44;101203.00;5054197;28;20372;-77
2023/03/22 10:41:23;;;;;;;22.70;17.27;;;;;;;17.62;50.21;101206.31;5052897;28;20381;-77
2023/03/22 10:43:56;;;;;;;24.05;17.05;;;;;;;17.64;50.47;101196.22;5053624;28;20388;-76
2023/03/22 10:46:26;;;;;;;23.53;17.33;;;;;;;17.77;50.35;101199.75;5054337;28;20489;-78
2023/03/22 10:48:57;;;;;;;23.67;18.38;;;;;;;17.74;50.60;101208.19;5054063;28;20400;-79
2023/03/22 10:51:44;;;;;;;24.35;18.60;;;;;;;17.71;50.76;101205.09;5052515;28;20451;-77
2023/03/22 10:54:15;;;;;;;22.42;18.00;;;;;;;17.69;50.99;101207.16;5054488;28;20404;-77
2023/03/22 10:56:40;;;;;;;25.48;18.17;;;;;;;17.74;50.55;101205.50;5053499;28;20416;-77
2023/03/22 10:59:06;;;;;;;27.58;19.10;;;;;;;17.69;50.42;101201.78;5053921;28;20404;-75
2023/03/22 11:01:36;;;;;;;23.27;18.37;;;;;;;17.66;50.60;101191.47;5053936;28;20389;-76
2023/03/22 11:04:08;;;;;;;25.27;17.98;;;;;;;17.76;50.39;101187.34;5052738;28;20819;-75
2023/03/22 11:06:47;;;;;;;23.52;18.40;;;;;;;17.91;50.43;101187.16;5053316;28;20392;-77
2023/03/22 11:09:19;;;;;;;25.70;18.90;;;;;;;17.95;50.27;101185.75;5053322;28;20387;-77
2023/03/22 11:11:56;;;;;;;22.17;17.00;;;;;;;17.99;50.26;101183.47;5053978;28;20737;-78
2023/03/22 11:14:26;;;;;;;21.25;16.35;;;;;;;17.89;50.24;101175.00;5053393;28;20400;-76
2023/03/22 11:16:56;;;;;;;23.95;16.73;;;;;;;17.90;50.02;101169.44;5053133;28;20849;-76
2023/03/22 11:19:33;;;;;;;19.93;16.27;;;;;;;17.86;49.99;101168.22;5053681;28;20380;-75